Darstellungsparameter: Aktuell verwendete Einstellungen:
Skalierung der Graphiken ... ?
xyx+y,   Skalierungsfaktor:      Skalierung: Modus: x, Faktor: 1
Darstellungszeitraum ... ?
Vom - - bis: - -   Zeitraum: 17.07.2019 - 19.07.2019
Min/Max/Avg-Anzeige ... ?
Zeige MMA aktuell
Zeige MMA Monat
Zeige MMA alles
Zeige --A aktuell
Zeige --A Monat
Zeige --A alles
Keine MMA-Anzeige
MMA:
Average (ber die Originaldaten)
MMA-Basis: 17.07.2019 - 19.07.2019
Quicknavigation für Darstellung... ?
Tage:      1T, 2T, 3T, 5T -1T -2T -3T -5T +1T +2T +3T +5T
Wochen: 1W, 2W, 3W -1W -2W -3W +1W +2W +3W
Monate: 1M, 3M, 6M -1M -3M -6M +1M +3M +6M
Jahre:    1J, 3J, 5J, 10J -1J -3J -5J -10J +1J +3J +5J +10J
Nutze für die Darstellung ... ?
Originaldaten oder Mittelwerte auf ...
Stundenbasis Tagesbasis Wochenbasis
Monatsbasis Jahresbasis      Datenbasis: Original-Daten
Darstellen als:
Statistik (Auto) Statistik J:M      Darstellung:
Zur Graphik,    zurück zur Übersicht aller Sensoren.
 
Tabellarische Datenbersicht: ?
 
Sensor: Nr:Datum:Temp:Abs-Feuchte:Windchill:Wind:
Aussen-T/F 1 17-07-2019 00:00:00 14.7 C 10.45 g/m*3 14.7 C 0 km/h
2 17-07-2019 00:05:00 14.6 C 10.39 g/m*3 14.6 C 0 km/h
3 17-07-2019 00:10:00 14.4 C 10.26 g/m*3 14.4 C 0 km/h
4 17-07-2019 00:15:00 14.3 C 10.2 g/m*3 14.3 C 0 km/h
5 17-07-2019 00:20:00 14.3 C 10.32 g/m*3 14.3 C 0 km/h
6 17-07-2019 00:25:00 14.1 C 10.19 g/m*3 14.1 C 0 km/h
7 17-07-2019 00:30:00 14 C 10.13 g/m*3 14 C 0 km/h
8 17-07-2019 00:35:00 13.9 C 10.19 g/m*3 13.9 C 0 km/h
9 17-07-2019 00:40:00 13.8 C 10.13 g/m*3 13.8 C 0 km/h
10 17-07-2019 00:45:00 13.7 C 10.18 g/m*3 13.7 C 0 km/h
11 17-07-2019 00:50:00 13.7 C 10.18 g/m*3 13.7 C 0 km/h
12 17-07-2019 00:55:00 13.6 C 10.12 g/m*3 13.6 C 0 km/h
13 17-07-2019 01:00:00 13.4 C 10.11 g/m*3 13.4 C 0 km/h
14 17-07-2019 01:05:00 13.3 C 10.05 g/m*3 13.3 C 0 km/h
15 17-07-2019 01:10:00 13.2 C 9.99 g/m*3 13.2 C 0 km/h
16 17-07-2019 01:15:00 13.2 C 10.1 g/m*3 13.2 C 0 km/h
17 17-07-2019 01:20:00 13.1 C 10.04 g/m*3 13.1 C 0 km/h
18 17-07-2019 01:25:00 13.1 C 10.04 g/m*3 13.1 C 0 km/h
19 17-07-2019 01:30:00 13.1 C 10.16 g/m*3 13.1 C 0 km/h
20 17-07-2019 01:35:00 13 C 10.09 g/m*3 13 C 0 km/h
21 17-07-2019 01:40:00 13 C 10.09 g/m*3 13 C 0 km/h
22 17-07-2019 01:45:00 12.9 C 10.03 g/m*3 12.9 C 0 km/h
23 17-07-2019 01:50:00 12.9 C 10.03 g/m*3 12.9 C 0 km/h
24 17-07-2019 01:55:00 12.8 C 9.97 g/m*3 12.8 C 0 km/h
25 17-07-2019 02:00:00 12.8 C 9.97 g/m*3 12.8 C 0 km/h
Sensor: Nr:Datum:Temp:Abs-Feuchte:Windchill:Wind:
Aussen-T/F 26 17-07-2019 02:05:00 12.7 C 9.91 g/m*3 12.7 C 0 km/h
27 17-07-2019 02:10:00 12.7 C 9.91 g/m*3 12.7 C 0 km/h
28 17-07-2019 02:15:00 12.6 C 9.85 g/m*3 12.6 C 0 km/h
29 17-07-2019 02:20:00 12.5 C 9.89 g/m*3 12.5 C 0 km/h
30 17-07-2019 02:25:00 12.4 C 9.83 g/m*3 12.4 C 0 km/h
31 17-07-2019 02:30:00 12.3 C 9.77 g/m*3 12.3 C 0 km/h
32 17-07-2019 02:35:00 12.3 C 9.77 g/m*3 12.3 C 0 km/h
33 17-07-2019 02:40:00 12.3 C 9.77 g/m*3 12.3 C 0 km/h
34 17-07-2019 02:45:00 12.2 C 9.71 g/m*3 12.2 C 0 km/h
35 17-07-2019 02:50:00 12.1 C 9.76 g/m*3 12.1 C 0 km/h
36 17-07-2019 02:55:00 12 C 9.59 g/m*3 12 C 0 km/h
37 17-07-2019 03:00:00 11.9 C 9.64 g/m*3 11.9 C 0 km/h
38 17-07-2019 03:05:00 11.8 C 9.58 g/m*3 11.8 C 0 km/h
39 17-07-2019 03:10:00 11.8 C 9.58 g/m*3 11.8 C 0 km/h
40 17-07-2019 03:15:00 11.7 C 9.52 g/m*3 11.7 C 0 km/h
41 17-07-2019 03:20:00 11.6 C 9.46 g/m*3 11.6 C 0 km/h
42 17-07-2019 03:25:00 11.6 C 9.56 g/m*3 11.6 C 0 km/h
43 17-07-2019 03:30:00 11.6 C 9.56 g/m*3 11.6 C 0 km/h
44 17-07-2019 03:35:00 11.6 C 9.56 g/m*3 11.6 C 0 km/h
45 17-07-2019 03:40:00 11.6 C 9.56 g/m*3 11.6 C 0 km/h
46 17-07-2019 03:45:00 11.5 C 9.5 g/m*3 11.5 C 0 km/h
47 17-07-2019 03:50:00 11.5 C 9.5 g/m*3 11.5 C 0 km/h
48 17-07-2019 03:55:00 11.5 C 9.5 g/m*3 11.5 C 0 km/h
49 17-07-2019 04:00:00 11.4 C 9.44 g/m*3 11.4 C 0 km/h
50 17-07-2019 04:05:00 11.4 C 9.55 g/m*3 11.4 C 0 km/h
Sensor: Nr:Datum:Temp:Abs-Feuchte:Windchill:Wind:
Aussen-T/F 51 17-07-2019 04:10:00 11.4 C 9.55 g/m*3 11.4 C 1.6 km/h
52 17-07-2019 04:15:00 11.3 C 9.49 g/m*3 11.3 C 1.6 km/h
53 17-07-2019 04:20:00 11.2 C 9.33 g/m*3 11.2 C 0 km/h
54 17-07-2019 04:25:00 11.2 C 9.43 g/m*3 11.2 C 0 km/h
55 17-07-2019 04:30:00 11.2 C 9.43 g/m*3 11.2 C 0 km/h
56 17-07-2019 04:35:00 11.2 C 9.43 g/m*3 11.2 C 0 km/h
57 17-07-2019 04:40:00 11.2 C 9.43 g/m*3 11.2 C 0 km/h
58 17-07-2019 04:45:00 11.1 C 9.37 g/m*3 11.1 C 0 km/h
59 17-07-2019 04:50:00 11.1 C 9.37 g/m*3 11.1 C 0 km/h
60 17-07-2019 04:55:00 11 C 9.31 g/m*3 11 C 0 km/h
61 17-07-2019 05:00:00 10.9 C 9.25 g/m*3 10.9 C 0 km/h
62 17-07-2019 05:05:00 10.9 C 9.25 g/m*3 10.9 C 0 km/h
63 17-07-2019 05:10:00 10.9 C 9.25 g/m*3 10.9 C 0 km/h
64 17-07-2019 05:15:00 10.9 C 9.35 g/m*3 10.9 C 0 km/h
65 17-07-2019 05:20:00 10.9 C 9.35 g/m*3 10.9 C 0 km/h
66 17-07-2019 05:25:00 10.9 C 9.35 g/m*3 10.9 C 0 km/h
67 17-07-2019 05:30:00 10.9 C 9.35 g/m*3 10.9 C 0 km/h
68 17-07-2019 05:35:00 10.8 C 9.29 g/m*3 10.8 C 0 km/h
69 17-07-2019 05:40:00 10.8 C 9.29 g/m*3 10.8 C 0 km/h
70 17-07-2019 05:45:00 10.7 C 9.23 g/m*3 10.7 C 0 km/h
71 17-07-2019 05:50:00 10.7 C 9.23 g/m*3 10.7 C 0 km/h
72 17-07-2019 05:55:00 10.7 C 9.23 g/m*3 10.7 C 0 km/h
73 17-07-2019 06:00:00 10.7 C 9.23 g/m*3 10.7 C 0 km/h
74 17-07-2019 06:05:00 10.7 C 9.23 g/m*3 10.7 C 0 km/h
75 17-07-2019 06:10:00 10.6 C 9.17 g/m*3 10.6 C 0 km/h
Sensor: Nr:Datum:Temp:Abs-Feuchte:Windchill:Wind:
Aussen-T/F 76 17-07-2019 06:15:00 10.6 C 9.17 g/m*3 10.6 C 0 km/h
77 17-07-2019 06:20:00 10.6 C 9.17 g/m*3 10.6 C 0 km/h
78 17-07-2019 06:25:00 10.7 C 9.23 g/m*3 10.7 C 0 km/h
79 17-07-2019 06:30:00 10.7 C 9.33 g/m*3 10.7 C 0 km/h
80 17-07-2019 06:35:00 10.7 C 9.33 g/m*3 10.7 C 0 km/h
81 17-07-2019 06:40:00 10.8 C 9.39 g/m*3 10.8 C 0 km/h
82 17-07-2019 06:45:00 10.9 C 9.45 g/m*3 10.9 C 0 km/h
83 17-07-2019 06:50:00 10.9 C 9.45 g/m*3 10.9 C 0 km/h
84 17-07-2019 06:55:00 11 C 9.51 g/m*3 11 C 0 km/h
85 17-07-2019 07:00:00 11.1 C 9.57 g/m*3 11.1 C 0 km/h
86 17-07-2019 07:05:00 11.1 C 9.57 g/m*3 11.1 C 0 km/h
87 17-07-2019 07:10:00 11.2 C 9.63 g/m*3 11.2 C 0 km/h
88 17-07-2019 07:15:00 11.2 C 9.63 g/m*3 11.2 C 0 km/h
89 17-07-2019 07:20:00 11.3 C 9.69 g/m*3 11.3 C 0 km/h
90 17-07-2019 07:25:00 11.4 C 9.75 g/m*3 11.4 C 0 km/h
91 17-07-2019 07:30:00 11.6 C 9.87 g/m*3 11.6 C 0 km/h
92 17-07-2019 07:35:00 11.7 C 9.94 g/m*3 11.7 C 0 km/h
93 17-07-2019 07:40:00 11.8 C 10 g/m*3 11.8 C 0 km/h
94 17-07-2019 07:45:00 11.8 C 10.1 g/m*3 11.8 C 0 km/h
95 17-07-2019 07:50:00 11.9 C 10.06 g/m*3 11.9 C 0 km/h
96 17-07-2019 07:55:00 12.1 C 10.19 g/m*3 12.1 C 0 km/h
97 17-07-2019 08:00:00 12.2 C 10.36 g/m*3 12.2 C 0 km/h
98 17-07-2019 08:05:00 12.3 C 10.32 g/m*3 12.3 C 0 km/h
99 17-07-2019 08:10:00 12.4 C 10.38 g/m*3 12.4 C 0 km/h
100 17-07-2019 08:15:00 12.6 C 10.51 g/m*3 12.6 C 0 km/h
Sensor: Nr:Datum:Temp:Abs-Feuchte:Windchill:Wind:
Aussen-T/F 101 17-07-2019 08:20:00 12.6 C 10.51 g/m*3 12.6 C 0 km/h
102 17-07-2019 08:25:00 12.7 C 10.58 g/m*3 12.7 C 0 km/h
103 17-07-2019 08:30:00 12.8 C 10.64 g/m*3 12.8 C 0 km/h
104 17-07-2019 08:35:00 12.9 C 10.59 g/m*3 12.9 C 0 km/h
105 17-07-2019 08:40:00 13.1 C 10.73 g/m*3 13.1 C 0 km/h
106 17-07-2019 08:45:00 13.2 C 10.79 g/m*3 13.2 C 0 km/h
107 17-07-2019 08:50:00 13.3 C 10.74 g/m*3 13.3 C 0 km/h
108 17-07-2019 08:55:00 13.4 C 10.81 g/m*3 13.4 C 0 km/h
109 17-07-2019 09:00:00 13.7 C 11.01 g/m*3 13.7 C 0 km/h
110 17-07-2019 09:05:00 13.8 C 10.96 g/m*3 13.8 C 0 km/h
111 17-07-2019 09:10:00 14.1 C 11.17 g/m*3 14.1 C 1.6 km/h
112 17-07-2019 09:15:00 14.3 C 11.06 g/m*3 14.3 C 3.2 km/h
113 17-07-2019 09:20:00 14.5 C 11.19 g/m*3 14.5 C 1.6 km/h
114 17-07-2019 09:25:00 14.7 C 11.21 g/m*3 14.7 C 1.6 km/h
115 17-07-2019 09:30:00 15 C 11.28 g/m*3 15 C 0 km/h
116 17-07-2019 09:35:00 15.3 C 11.36 g/m*3 15.3 C 4.8 km/h
117 17-07-2019 09:40:00 15.5 C 11.5 g/m*3 15.5 C 4.8 km/h
118 17-07-2019 09:45:00 15.7 C 11.51 g/m*3 15.7 C 0 km/h
119 17-07-2019 09:50:00 15.8 C 11.44 g/m*3 15.8 C 1.6 km/h
120 17-07-2019 09:55:00 15.9 C 11.38 g/m*3 15.9 C 3.2 km/h
121 17-07-2019 10:00:00 16.1 C 11.38 g/m*3 16.1 C 4.8 km/h
122 17-07-2019 10:05:00 16.3 C 11.38 g/m*3 16.3 C 1.6 km/h
123 17-07-2019 10:10:00 16.4 C 11.31 g/m*3 16.4 C 0 km/h
124 17-07-2019 10:15:00 16.6 C 11.44 g/m*3 16.6 C 0 km/h
125 17-07-2019 10:20:00 16.8 C 11.44 g/m*3 16.8 C 6.4 km/h
Sensor: Nr:Datum:Temp:Abs-Feuchte:Windchill:Wind:
Aussen-T/F 126 17-07-2019 10:25:00 17.2 C 11.28 g/m*3 17.2 C 6.4 km/h
127 17-07-2019 10:30:00 17.5 C 11.33 g/m*3 17.5 C 6.4 km/h
128 17-07-2019 10:35:00 17.8 C 11.38 g/m*3 17.8 C 4.8 km/h
129 17-07-2019 10:40:00 17.9 C 11.3 g/m*3 17.9 C 9.7 km/h
130 17-07-2019 10:45:00 18 C 11.21 g/m*3 18 C 9.7 km/h
131 17-07-2019 10:50:00 18.1 C 11.43 g/m*3 18.1 C 4.8 km/h
132 17-07-2019 10:55:00 18.1 C 11.28 g/m*3 18.1 C 9.7 km/h
133 17-07-2019 11:00:00 18.2 C 11.35 g/m*3 18.2 C 8.1 km/h
134 17-07-2019 11:05:00 18.1 C 11.28 g/m*3 18.1 C 9.7 km/h
135 17-07-2019 11:10:00 18.2 C 11.35 g/m*3 18.2 C 9.7 km/h
136 17-07-2019 11:15:00 18.3 C 11.26 g/m*3 18.3 C 9.7 km/h
137 17-07-2019 11:20:00 18.5 C 11.39 g/m*3 18.5 C 0 km/h
138 17-07-2019 11:25:00 18.6 C 11.3 g/m*3 18.6 C 8.1 km/h
139 17-07-2019 11:30:00 18.7 C 11.53 g/m*3 18.7 C 4.8 km/h
140 17-07-2019 11:35:00 18.7 C 11.37 g/m*3 18.7 C 4.8 km/h
141 17-07-2019 11:40:00 18.7 C 11.37 g/m*3 18.7 C 4.8 km/h
142 17-07-2019 11:45:00 18.8 C 11.43 g/m*3 18.8 C 4.8 km/h
143 17-07-2019 11:50:00 19 C 11.57 g/m*3 19 C 6.4 km/h
144 17-07-2019 11:55:00 19.2 C 11.54 g/m*3 19.2 C 8.1 km/h
145 17-07-2019 12:00:00 19.1 C 11.31 g/m*3 19.1 C 11.3 km/h
146 17-07-2019 12:05:00 19.1 C 11.47 g/m*3 19.1 C 4.8 km/h
147 17-07-2019 12:10:00 19.2 C 11.54 g/m*3 19.2 C 11.3 km/h
148 17-07-2019 12:15:00 19.2 C 11.54 g/m*3 19.2 C 8.1 km/h
149 17-07-2019 12:20:00 19.3 C 11.61 g/m*3 19.3 C 6.4 km/h
150 17-07-2019 12:25:00 19.3 C 11.61 g/m*3 19.3 C 4.8 km/h
Sensor: Nr:Datum:Temp:Abs-Feuchte:Windchill:Wind:
Aussen-T/F 151 17-07-2019 12:30:00 19.4 C 11.51 g/m*3 19.4 C 6.4 km/h
152 17-07-2019 12:35:00 19.4 C 11.35 g/m*3 19.4 C 8.1 km/h
153 17-07-2019 12:40:00 19.6 C 11.48 g/m*3 19.6 C 6.4 km/h
154 17-07-2019 12:45:00 19.6 C 11.31 g/m*3 19.6 C 6.4 km/h
155 17-07-2019 12:50:00 19.7 C 11.38 g/m*3 19.7 C 4.8 km/h
156 17-07-2019 12:55:00 19.8 C 11.44 g/m*3 19.8 C 9.7 km/h
157 17-07-2019 13:00:00 19.8 C 11.44 g/m*3 19.8 C 11.3 km/h
158 17-07-2019 13:05:00 19.8 C 11.27 g/m*3 19.8 C 3.2 km/h
159 17-07-2019 13:10:00 19.8 C 11.1 g/m*3 19.8 C 6.4 km/h
160 17-07-2019 13:15:00 20 C 11.23 g/m*3 20 C 9.7 km/h
161 17-07-2019 13:20:00 20.3 C 11.26 g/m*3 20.3 C 9.7 km/h
162 17-07-2019 13:25:00 20.6 C 11.45 g/m*3 20.6 C 9.7 km/h
163 17-07-2019 13:30:00 20.7 C 11.34 g/m*3 20.7 C 8.1 km/h
164 17-07-2019 13:35:00 20.9 C 11.11 g/m*3 20.9 C 11.3 km/h
165 17-07-2019 13:40:00 20.9 C 10.93 g/m*3 20.9 C 8.1 km/h
166 17-07-2019 13:45:00 20.9 C 10.93 g/m*3 20.9 C 9.7 km/h
167 17-07-2019 13:50:00 21.1 C 11.06 g/m*3 21.1 C 9.7 km/h
168 17-07-2019 13:55:00 21.2 C 11.12 g/m*3 21.2 C 9.7 km/h
169 17-07-2019 14:00:00 21.1 C 10.87 g/m*3 21.1 C 3.2 km/h
170 17-07-2019 14:05:00 21.1 C 11.06 g/m*3 21.1 C 3.2 km/h
171 17-07-2019 14:10:00 21.3 C 11.18 g/m*3 21.3 C 6.4 km/h
172 17-07-2019 14:15:00 21.5 C 10.75 g/m*3 21.5 C 8.1 km/h
173 17-07-2019 14:20:00 21.5 C 10.94 g/m*3 21.5 C 4.8 km/h
174 17-07-2019 14:25:00 21.7 C 11.45 g/m*3 21.7 C 14.5 km/h
175 17-07-2019 14:30:00 21.9 C 11.39 g/m*3 21.9 C 14.5 km/h
Sensor: Nr:Datum:Temp:Abs-Feuchte:Windchill:Wind:
Aussen-T/F 176 17-07-2019 14:35:00 21.9 C 11.58 g/m*3 21.9 C 9.7 km/h
177 17-07-2019 14:40:00 22.1 C 11.32 g/m*3 22.1 C 11.3 km/h
178 17-07-2019 14:45:00 22.1 C 11.32 g/m*3 22.1 C 9.7 km/h
179 17-07-2019 14:50:00 22 C 11.45 g/m*3 22 C 8.1 km/h
180 17-07-2019 14:55:00 22.1 C 11.52 g/m*3 22.1 C 16.1 km/h
181 17-07-2019 15:00:00 22.3 C 12.05 g/m*3 22.3 C 16.1 km/h
182 17-07-2019 15:05:00 22.3 C 11.45 g/m*3 22.3 C 16.1 km/h
183 17-07-2019 15:10:00 22.3 C 11.45 g/m*3 22.3 C 14.5 km/h
184 17-07-2019 15:15:00 22.3 C 11.85 g/m*3 22.3 C 9.7 km/h
185 17-07-2019 15:20:00 22.4 C 11.72 g/m*3 22.4 C 12.9 km/h
186 17-07-2019 15:25:00 22.7 C 11.72 g/m*3 22.7 C 11.3 km/h
187 17-07-2019 15:30:00 22.7 C 11.31 g/m*3 22.7 C 9.7 km/h
188 17-07-2019 15:35:00 22.8 C 11.79 g/m*3 22.8 C 9.7 km/h
189 17-07-2019 15:40:00 22.9 C 11.65 g/m*3 22.9 C 11.3 km/h
190 17-07-2019 15:45:00 23.1 C 11.78 g/m*3 23.1 C 14.5 km/h
191 17-07-2019 15:50:00 23.2 C 11.64 g/m*3 23.2 C 14.5 km/h
192 17-07-2019 15:55:00 23.3 C 12.13 g/m*3 23.3 C 11.3 km/h
193 17-07-2019 16:00:00 23.3 C 11.5 g/m*3 23.3 C 12.9 km/h
194 17-07-2019 16:05:00 23.3 C 11.92 g/m*3 23.3 C 12.9 km/h
195 17-07-2019 16:10:00 23.2 C 11.64 g/m*3 23.2 C 11.3 km/h
196 17-07-2019 16:15:00 23.1 C 11.58 g/m*3 23.1 C 14.5 km/h
197 17-07-2019 16:20:00 23.2 C 12.06 g/m*3 23.2 C 6.4 km/h
198 17-07-2019 16:25:00 23.7 C 11.76 g/m*3 23.7 C 14.5 km/h
199 17-07-2019 16:30:00 23.9 C 11.68 g/m*3 23.9 C 9.7 km/h
200 17-07-2019 16:35:00 24.1 C 11.82 g/m*3 24.1 C 9.7 km/h
Sensor: Nr:Datum:Temp:Abs-Feuchte:Windchill:Wind:
Aussen-T/F 201 17-07-2019 16:40:00 24.1 C 11.6 g/m*3 24.1 C 14.5 km/h
202 17-07-2019 16:45:00 24.1 C 11.82 g/m*3 24.1 C 8.1 km/h
203 17-07-2019 16:50:00 24.2 C 11.66 g/m*3 24.2 C 11.3 km/h
204 17-07-2019 16:55:00 23.9 C 11.68 g/m*3 23.9 C 12.9 km/h
205 17-07-2019 17:00:00 23.7 C 11.76 g/m*3 23.7 C 11.3 km/h
206 17-07-2019 17:05:00 24 C 11.75 g/m*3 24 C 9.7 km/h
207 17-07-2019 17:10:00 24.3 C 11.95 g/m*3 24.3 C 9.7 km/h
208 17-07-2019 17:15:00 24.6 C 12.15 g/m*3 24.6 C 12.9 km/h
209 17-07-2019 17:20:00 24.6 C 11.7 g/m*3 24.6 C 9.7 km/h
210 17-07-2019 17:25:00 24.7 C 12 g/m*3 24.7 C 12.9 km/h
211 17-07-2019 17:30:00 24.8 C 12.06 g/m*3 24.8 C 9.7 km/h
212 17-07-2019 17:35:00 24.8 C 11.84 g/m*3 24.8 C 9.7 km/h
213 17-07-2019 17:40:00 24.7 C 11.77 g/m*3 24.7 C 9.7 km/h
214 17-07-2019 17:45:00 24.9 C 12.13 g/m*3 24.9 C 6.4 km/h
215 17-07-2019 17:50:00 25 C 11.74 g/m*3 25 C 9.7 km/h
216 17-07-2019 17:55:00 24.8 C 12.06 g/m*3 24.8 C 11.3 km/h
217 17-07-2019 18:00:00 24.8 C 12.06 g/m*3 24.8 C 8.1 km/h
218 17-07-2019 18:05:00 24.7 C 12 g/m*3 24.7 C 9.7 km/h
219 17-07-2019 18:10:00 24.7 C 11.77 g/m*3 24.7 C 8.1 km/h
220 17-07-2019 18:15:00 24.6 C 11.93 g/m*3 24.6 C 12.9 km/h
221 17-07-2019 18:20:00 24.4 C 11.79 g/m*3 24.4 C 14.5 km/h
222 17-07-2019 18:25:00 24.2 C 11.88 g/m*3 24.2 C 12.9 km/h
223 17-07-2019 18:30:00 24.1 C 12.03 g/m*3 24.1 C 12.9 km/h
224 17-07-2019 18:35:00 23.9 C 11.9 g/m*3 23.9 C 11.3 km/h
225 17-07-2019 18:40:00 23.8 C 12.05 g/m*3 23.8 C 11.3 km/h
Sensor: Nr:Datum:Temp:Abs-Feuchte:Windchill:Wind:
Aussen-T/F 226 17-07-2019 18:45:00 23.9 C 12.11 g/m*3 23.9 C 11.3 km/h
227 17-07-2019 18:50:00 23.9 C 11.9 g/m*3 23.9 C 8.1 km/h
228 17-07-2019 18:55:00 23.9 C 11.9 g/m*3 23.9 C 14.5 km/h
229 17-07-2019 19:00:00 23.7 C 12.19 g/m*3 23.7 C 11.3 km/h
230 17-07-2019 19:05:00 23.7 C 12.19 g/m*3 23.7 C 11.3 km/h
231 17-07-2019 19:10:00 23.9 C 12.11 g/m*3 23.9 C 8.1 km/h
232 17-07-2019 19:15:00 23.7 C 12.19 g/m*3 23.7 C 9.7 km/h
233 17-07-2019 19:20:00 23.6 C 12.34 g/m*3 23.6 C 8.1 km/h
234 17-07-2019 19:25:00 23.6 C 12.12 g/m*3 23.6 C 9.7 km/h
235 17-07-2019 19:30:00 23.3 C 12.13 g/m*3 23.3 C 12.9 km/h
236 17-07-2019 19:35:00 23.1 C 12.2 g/m*3 23.1 C 9.7 km/h
237 17-07-2019 19:40:00 22.7 C 12.12 g/m*3 22.7 C 12.9 km/h
238 17-07-2019 19:45:00 22.5 C 11.98 g/m*3 22.5 C 8.1 km/h
239 17-07-2019 19:50:00 22.4 C 12.11 g/m*3 22.4 C 8.1 km/h
240 17-07-2019 19:55:00 22.3 C 12.24 g/m*3 22.3 C 12.9 km/h
241 17-07-2019 20:00:00 22.2 C 11.98 g/m*3 22.2 C 12.9 km/h
242 17-07-2019 20:05:00 22.2 C 11.98 g/m*3 22.2 C 8.1 km/h
243 17-07-2019 20:10:00 22.1 C 12.1 g/m*3 22.1 C 9.7 km/h
244 17-07-2019 20:15:00 21.9 C 12.16 g/m*3 21.9 C 11.3 km/h
245 17-07-2019 20:20:00 21.8 C 12.28 g/m*3 21.8 C 6.4 km/h
246 17-07-2019 20:25:00 21.6 C 12.33 g/m*3 21.6 C 4.8 km/h
247 17-07-2019 20:30:00 21.4 C 12.19 g/m*3 21.4 C 6.4 km/h
248 17-07-2019 20:35:00 21.3 C 12.12 g/m*3 21.3 C 8.1 km/h
249 17-07-2019 20:40:00 21.2 C 12.05 g/m*3 21.2 C 9.7 km/h
250 17-07-2019 20:45:00 21 C 12.09 g/m*3 21 C 9.7 km/h
Sensor: Nr:Datum:Temp:Abs-Feuchte:Windchill:Wind:
Aussen-T/F 251 17-07-2019 20:50:00 20.9 C 12.2 g/m*3 20.9 C 9.7 km/h
252 17-07-2019 20:55:00 20.7 C 12.06 g/m*3 20.7 C 8.1 km/h
253 17-07-2019 21:00:00 20.6 C 12.17 g/m*3 20.6 C 8.1 km/h
254 17-07-2019 21:05:00 20.4 C 12.03 g/m*3 20.4 C 8.1 km/h
255 17-07-2019 21:10:00 20.3 C 11.96 g/m*3 20.3 C 4.8 km/h
256 17-07-2019 21:15:00 20.2 C 12.06 g/m*3 20.2 C 4.8 km/h
257 17-07-2019 21:20:00 20.1 C 11.99 g/m*3 20.1 C 6.4 km/h
258 17-07-2019 21:25:00 20.1 C 12.17 g/m*3 20.1 C 0 km/h
259 17-07-2019 21:30:00 19.9 C 12.2 g/m*3 19.9 C 0 km/h
260 17-07-2019 21:35:00 19.6 C 11.99 g/m*3 19.6 C 0 km/h
261 17-07-2019 21:40:00 19.3 C 11.94 g/m*3 19.3 C 0 km/h
262 17-07-2019 21:45:00 18.9 C 11.83 g/m*3 18.9 C 0 km/h
263 17-07-2019 21:50:00 18.6 C 11.78 g/m*3 18.6 C 0 km/h
264 17-07-2019 21:55:00 18.3 C 11.73 g/m*3 18.3 C 0 km/h
265 17-07-2019 22:00:00 18 C 11.67 g/m*3 18 C 1.6 km/h
266 17-07-2019 22:05:00 17.7 C 11.62 g/m*3 17.7 C 0 km/h
267 17-07-2019 22:10:00 17.5 C 11.63 g/m*3 17.5 C 0 km/h
268 17-07-2019 22:15:00 17.3 C 11.64 g/m*3 17.3 C 0 km/h
269 17-07-2019 22:20:00 17.2 C 11.72 g/m*3 17.2 C 0 km/h
270 17-07-2019 22:25:00 17.1 C 11.65 g/m*3 17.1 C 0 km/h
271 17-07-2019 22:30:00 16.9 C 11.65 g/m*3 16.9 C 0 km/h
272 17-07-2019 22:35:00 16.8 C 11.58 g/m*3 16.8 C 0 km/h
273 17-07-2019 22:40:00 16.7 C 11.51 g/m*3 16.7 C 0 km/h
274 17-07-2019 22:45:00 16.6 C 11.58 g/m*3 16.6 C 0 km/h
275 17-07-2019 22:50:00 16.4 C 11.45 g/m*3 16.4 C 0 km/h
Sensor: Nr:Datum:Temp:Abs-Feuchte:Windchill:Wind:
Aussen-T/F 276 17-07-2019 22:55:00 16.4 C 11.58 g/m*3 16.4 C 0 km/h
277 17-07-2019 23:00:00 16.3 C 11.65 g/m*3 16.3 C 0 km/h
278 17-07-2019 23:05:00 16.3 C 11.65 g/m*3 16.3 C 0 km/h
279 17-07-2019 23:10:00 16.3 C 11.65 g/m*3 16.3 C 0 km/h
280 17-07-2019 23:15:00 16.2 C 11.58 g/m*3 16.2 C 0 km/h
281 17-07-2019 23:20:00 16.2 C 11.58 g/m*3 16.2 C 0 km/h
282 17-07-2019 23:25:00 16.1 C 11.51 g/m*3 16.1 C 0 km/h
283 17-07-2019 23:30:00 16 C 11.58 g/m*3 16 C 0 km/h
284 17-07-2019 23:35:00 15.9 C 11.51 g/m*3 15.9 C 0 km/h
285 17-07-2019 23:40:00 15.8 C 11.44 g/m*3 15.8 C 0 km/h
286 17-07-2019 23:45:00 15.8 C 11.44 g/m*3 15.8 C 0 km/h
287 17-07-2019 23:50:00 15.7 C 11.37 g/m*3 15.7 C 0 km/h
288 17-07-2019 23:55:00 15.7 C 11.37 g/m*3 15.7 C 0 km/h
289 18-07-2019 00:00:00 15.6 C 11.3 g/m*3 15.6 C 0 km/h
290 18-07-2019 00:05:00 15.6 C 11.3 g/m*3 15.6 C 0 km/h
291 18-07-2019 00:10:00 15.5 C 11.37 g/m*3 15.5 C 0 km/h
292 18-07-2019 00:15:00 15.4 C 11.3 g/m*3 15.4 C 0 km/h
293 18-07-2019 00:20:00 15.4 C 11.3 g/m*3 15.4 C 0 km/h
294 18-07-2019 00:25:00 15.3 C 11.23 g/m*3 15.3 C 0 km/h
295 18-07-2019 00:30:00 15.3 C 11.23 g/m*3 15.3 C 0 km/h
296 18-07-2019 00:35:00 15.2 C 11.16 g/m*3 15.2 C 0 km/h
297 18-07-2019 00:40:00 15.2 C 11.16 g/m*3 15.2 C 0 km/h
298 18-07-2019 00:45:00 15.1 C 11.22 g/m*3 15.1 C 0 km/h
299 18-07-2019 00:50:00 15 C 11.16 g/m*3 15 C 0 km/h
300 18-07-2019 00:55:00 14.9 C 11.09 g/m*3 14.9 C 0 km/h
Sensor: Nr:Datum:Temp:Abs-Feuchte:Windchill:Wind:
Aussen-T/F 301 18-07-2019 01:00:00 14.8 C 11.02 g/m*3 14.8 C 0 km/h
302 18-07-2019 01:05:00 14.7 C 11.08 g/m*3 14.7 C 0 km/h
303 18-07-2019 01:10:00 14.7 C 11.08 g/m*3 14.7 C 0 km/h
304 18-07-2019 01:15:00 14.6 C 11.01 g/m*3 14.6 C 0 km/h
305 18-07-2019 01:20:00 14.4 C 10.88 g/m*3 14.4 C 0 km/h
306 18-07-2019 01:25:00 14.4 C 10.88 g/m*3 14.4 C 0 km/h
307 18-07-2019 01:30:00 14.3 C 10.81 g/m*3 14.3 C 0 km/h
308 18-07-2019 01:35:00 14.1 C 10.8 g/m*3 14.1 C 0 km/h
309 18-07-2019 01:40:00 14 C 10.74 g/m*3 14 C 0 km/h
310 18-07-2019 01:45:00 13.9 C 10.67 g/m*3 13.9 C 0 km/h
311 18-07-2019 01:50:00 13.8 C 10.72 g/m*3 13.8 C 0 km/h
312 18-07-2019 01:55:00 13.8 C 10.72 g/m*3 13.8 C 0 km/h
313 18-07-2019 02:00:00 13.8 C 10.72 g/m*3 13.8 C 0 km/h
314 18-07-2019 02:05:00 13.8 C 10.84 g/m*3 13.8 C 0 km/h
315 18-07-2019 02:10:00 13.7 C 10.78 g/m*3 13.7 C 0 km/h
316 18-07-2019 02:15:00 13.7 C 10.78 g/m*3 13.7 C 0 km/h
317 18-07-2019 02:20:00 13.7 C 10.78 g/m*3 13.7 C 0 km/h
318 18-07-2019 02:25:00 13.7 C 10.78 g/m*3 13.7 C 0 km/h
319 18-07-2019 02:30:00 13.6 C 10.71 g/m*3 13.6 C 0 km/h
320 18-07-2019 02:35:00 13.6 C 10.71 g/m*3 13.6 C 0 km/h
321 18-07-2019 02:40:00 13.7 C 10.89 g/m*3 13.7 C 0 km/h
322 18-07-2019 02:45:00 13.7 C 10.89 g/m*3 13.7 C 0 km/h
323 18-07-2019 02:50:00 13.7 C 10.89 g/m*3 13.7 C 0 km/h
324 18-07-2019 02:55:00 13.6 C 10.83 g/m*3 13.6 C 0 km/h
325 18-07-2019 03:00:00 13.6 C 10.83 g/m*3 13.6 C 0 km/h
Sensor: Nr:Datum:Temp:Abs-Feuchte:Windchill:Wind:
Aussen-T/F 326 18-07-2019 03:05:00 13.6 C 10.83 g/m*3 13.6 C 0 km/h
327 18-07-2019 03:10:00 13.5 C 10.76 g/m*3 13.5 C 0 km/h
328 18-07-2019 03:15:00 13.5 C 10.76 g/m*3 13.5 C 0 km/h
329 18-07-2019 03:20:00 13.5 C 10.76 g/m*3 13.5 C 0 km/h
330 18-07-2019 03:25:00 13.4 C 10.69 g/m*3 13.4 C 0 km/h
331 18-07-2019 03:30:00 13.4 C 10.69 g/m*3 13.4 C 0 km/h
332 18-07-2019 03:35:00 13.4 C 10.69 g/m*3 13.4 C 0 km/h
333 18-07-2019 03:40:00 13.4 C 10.69 g/m*3 13.4 C 0 km/h
334 18-07-2019 03:45:00 13.4 C 10.81 g/m*3 13.4 C 0 km/h
335 18-07-2019 03:50:00 13.4 C 10.81 g/m*3 13.4 C 0 km/h
336 18-07-2019 03:55:00 13.4 C 10.81 g/m*3 13.4 C 0 km/h
337 18-07-2019 04:00:00 13.4 C 10.81 g/m*3 13.4 C 0 km/h
338 18-07-2019 04:05:00 13.4 C 10.81 g/m*3 13.4 C 0 km/h
339 18-07-2019 04:10:00 13.4 C 10.81 g/m*3 13.4 C 0 km/h
340 18-07-2019 04:15:00 13.4 C 10.81 g/m*3 13.4 C 0 km/h
341 18-07-2019 04:20:00 13.3 C 10.74 g/m*3 13.3 C 0 km/h
342 18-07-2019 04:25:00 13.3 C 10.74 g/m*3 13.3 C 0 km/h
343 18-07-2019 04:30:00 13.3 C 10.74 g/m*3 13.3 C 0 km/h
344 18-07-2019 04:35:00 13.2 C 10.68 g/m*3 13.2 C 0 km/h
345 18-07-2019 04:40:00 13.2 C 10.68 g/m*3 13.2 C 0 km/h
346 18-07-2019 04:45:00 13.1 C 10.61 g/m*3 13.1 C 0 km/h
347 18-07-2019 04:50:00 13 C 10.43 g/m*3 13 C 0 km/h
348 18-07-2019 04:55:00 12.9 C 10.48 g/m*3 12.9 C 0 km/h
349 18-07-2019 05:00:00 12.9 C 10.48 g/m*3 12.9 C 0 km/h
350 18-07-2019 05:05:00 12.8 C 10.42 g/m*3 12.8 C 0 km/h
Sensor: Nr:Datum:Temp:Abs-Feuchte:Windchill:Wind:
Aussen-T/F 351 18-07-2019 05:10:00 12.8 C 10.42 g/m*3 12.8 C 0 km/h
352 18-07-2019 05:15:00 12.8 C 10.42 g/m*3 12.8 C 0 km/h
353 18-07-2019 05:20:00 12.8 C 10.42 g/m*3 12.8 C 0 km/h
354 18-07-2019 05:25:00 12.7 C 10.35 g/m*3 12.7 C 0 km/h
355 18-07-2019 05:30:00 12.7 C 10.35 g/m*3 12.7 C 0 km/h
356 18-07-2019 05:35:00 12.6 C 10.29 g/m*3 12.6 C 0 km/h
357 18-07-2019 05:40:00 12.6 C 10.29 g/m*3 12.6 C 0 km/h
358 18-07-2019 05:45:00 12.5 C 10.22 g/m*3 12.5 C 0 km/h
359 18-07-2019 05:50:00 12.5 C 10.22 g/m*3 12.5 C 0 km/h
360 18-07-2019 05:55:00 12.4 C 10.27 g/m*3 12.4 C 0 km/h
361 18-07-2019 06:00:00 12.4 C 10.27 g/m*3 12.4 C 0 km/h
362 18-07-2019 06:05:00 12.4 C 10.27 g/m*3 12.4 C 0 km/h
363 18-07-2019 06:10:00 12.4 C 10.27 g/m*3 12.4 C 0 km/h
364 18-07-2019 06:15:00 12.3 C 10.21 g/m*3 12.3 C 0 km/h
365 18-07-2019 06:20:00 12.4 C 10.27 g/m*3 12.4 C 0 km/h
366 18-07-2019 06:25:00 12.4 C 10.27 g/m*3 12.4 C 0 km/h
367 18-07-2019 06:30:00 12.4 C 10.27 g/m*3 12.4 C 0 km/h
368 18-07-2019 06:35:00 12.4 C 10.27 g/m*3 12.4 C 0 km/h
369 18-07-2019 06:40:00 12.5 C 10.44 g/m*3 12.5 C 0 km/h
370 18-07-2019 06:45:00 12.6 C 10.51 g/m*3 12.6 C 0 km/h
371 18-07-2019 06:50:00 12.6 C 10.51 g/m*3 12.6 C 0 km/h
372 18-07-2019 06:55:00 12.7 C 10.58 g/m*3 12.7 C 0 km/h
373 18-07-2019 07:00:00 12.8 C 10.64 g/m*3 12.8 C 0 km/h
374 18-07-2019 07:05:00 12.9 C 10.71 g/m*3 12.9 C 0 km/h
375 18-07-2019 07:10:00 13 C 10.77 g/m*3 13 C 0 km/h
Sensor: Nr:Datum:Temp:Abs-Feuchte:Windchill:Wind:
Aussen-T/F 376 18-07-2019 07:15:00 13.1 C 10.84 g/m*3 13.1 C 0 km/h
377 18-07-2019 07:20:00 13.2 C 10.91 g/m*3 13.2 C 0 km/h
378 18-07-2019 07:25:00 13.2 C 10.91 g/m*3 13.2 C 0 km/h
379 18-07-2019 07:30:00 13.3 C 10.98 g/m*3 13.3 C 0 km/h
380 18-07-2019 07:35:00 13.4 C 11.04 g/m*3 13.4 C 0 km/h
381 18-07-2019 07:40:00 13.4 C 11.04 g/m*3 13.4 C 0 km/h
382 18-07-2019 07:45:00 13.5 C 11.11 g/m*3 13.5 C 0 km/h
383 18-07-2019 07:50:00 13.6 C 11.18 g/m*3 13.6 C 0 km/h
384 18-07-2019 07:55:00 13.7 C 11.25 g/m*3 13.7 C 0 km/h
385 18-07-2019 08:00:00 13.7 C 11.13 g/m*3 13.7 C 0 km/h
386 18-07-2019 08:05:00 13.8 C 11.2 g/m*3 13.8 C 0 km/h
387 18-07-2019 08:10:00 13.9 C 11.27 g/m*3 13.9 C 0 km/h
388 18-07-2019 08:15:00 14 C 11.34 g/m*3 14 C 0 km/h
389 18-07-2019 08:20:00 14.1 C 11.41 g/m*3 14.1 C 0 km/h
390 18-07-2019 08:25:00 14.3 C 11.55 g/m*3 14.3 C 0 km/h
391 18-07-2019 08:30:00 14.3 C 11.43 g/m*3 14.3 C 1.6 km/h
392 18-07-2019 08:35:00 14.4 C 11.5 g/m*3 14.4 C 0 km/h
393 18-07-2019 08:40:00 14.6 C 11.51 g/m*3 14.6 C 0 km/h
394 18-07-2019 08:45:00 14.7 C 11.58 g/m*3 14.7 C 0 km/h
395 18-07-2019 08:50:00 14.9 C 11.73 g/m*3 14.9 C 0 km/h
396 18-07-2019 08:55:00 15.1 C 11.87 g/m*3 15.1 C 0 km/h
397 18-07-2019 09:00:00 15.2 C 11.94 g/m*3 15.2 C 0 km/h
398 18-07-2019 09:05:00 15.4 C 12.09 g/m*3 15.4 C 0 km/h
399 18-07-2019 09:10:00 15.6 C 12.1 g/m*3 15.6 C 0 km/h
400 18-07-2019 09:15:00 15.7 C 12.18 g/m*3 15.7 C 0 km/h
Sensor: Nr:Datum:Temp:Abs-Feuchte:Windchill:Wind:
Aussen-T/F 401 18-07-2019 09:20:00 15.9 C 12.32 g/m*3 15.9 C 0 km/h
402 18-07-2019 09:25:00 16.1 C 12.2 g/m*3 16.1 C 0 km/h
403 18-07-2019 09:30:00 16.3 C 12.21 g/m*3 16.3 C 0 km/h
404 18-07-2019 09:35:00 16.4 C 12.28 g/m*3 16.4 C 0 km/h
405 18-07-2019 09:40:00 16.7 C 12.51 g/m*3 16.7 C 0 km/h
406 18-07-2019 09:45:00 16.9 C 12.37 g/m*3 16.9 C 0 km/h
407 18-07-2019 09:50:00 17.1 C 12.52 g/m*3 17.1 C 0 km/h
408 18-07-2019 09:55:00 17.3 C 12.82 g/m*3 17.3 C 0 km/h
409 18-07-2019 10:00:00 17.4 C 12.89 g/m*3 17.4 C 0 km/h
410 18-07-2019 10:05:00 17.6 C 12.75 g/m*3 17.6 C 0 km/h
411 18-07-2019 10:10:00 17.7 C 12.82 g/m*3 17.7 C 0 km/h
412 18-07-2019 10:15:00 17.9 C 12.98 g/m*3 17.9 C 0 km/h
413 18-07-2019 10:20:00 18.2 C 13.06 g/m*3 18.2 C 0 km/h
414 18-07-2019 10:25:00 18.5 C 13.13 g/m*3 18.5 C 0 km/h
415 18-07-2019 10:30:00 18.9 C 12.96 g/m*3 18.9 C 0 km/h
416 18-07-2019 10:35:00 19.3 C 13.27 g/m*3 19.3 C 1.6 km/h
417 18-07-2019 10:40:00 19.7 C 13.25 g/m*3 19.7 C 0 km/h
418 18-07-2019 10:45:00 20 C 13.31 g/m*3 20 C 0 km/h
419 18-07-2019 10:50:00 20.3 C 13.54 g/m*3 20.3 C 0 km/h
420 18-07-2019 10:55:00 20.5 C 13.35 g/m*3 20.5 C 0 km/h
421 18-07-2019 11:00:00 20.7 C 13.68 g/m*3 20.7 C 0 km/h
422 18-07-2019 11:05:00 20.8 C 13.4 g/m*3 20.8 C 0 km/h
423 18-07-2019 11:10:00 20.9 C 13.3 g/m*3 20.9 C 0 km/h
424 18-07-2019 11:15:00 21.1 C 12.53 g/m*3 21.1 C 4.8 km/h
425 18-07-2019 11:20:00 21.3 C 11.93 g/m*3 21.3 C 8.1 km/h
Sensor: Nr:Datum:Temp:Abs-Feuchte:Windchill:Wind:
Aussen-T/F 426 18-07-2019 11:25:00 21.7 C 11.83 g/m*3 21.7 C 6.4 km/h
427 18-07-2019 11:30:00 22.1 C 12.1 g/m*3 22.1 C 4.8 km/h
428 18-07-2019 11:35:00 22.3 C 11.85 g/m*3 22.3 C 4.8 km/h
429 18-07-2019 11:40:00 22.6 C 12.05 g/m*3 22.6 C 8.1 km/h
430 18-07-2019 11:45:00 22.9 C 11.85 g/m*3 22.9 C 9.7 km/h
431 18-07-2019 11:50:00 23.1 C 11.99 g/m*3 23.1 C 8.1 km/h
432 18-07-2019 11:55:00 23.2 C 12.06 g/m*3 23.2 C 8.1 km/h
433 18-07-2019 12:00:00 23.3 C 12.34 g/m*3 23.3 C 6.4 km/h
434 18-07-2019 12:05:00 23.4 C 11.99 g/m*3 23.4 C 3.2 km/h
435 18-07-2019 12:10:00 23.6 C 11.7 g/m*3 23.6 C 4.8 km/h
436 18-07-2019 12:15:00 23.8 C 12.05 g/m*3 23.8 C 0 km/h
437 18-07-2019 12:20:00 23.9 C 11.68 g/m*3 23.9 C 6.4 km/h
438 18-07-2019 12:25:00 24.3 C 11.95 g/m*3 24.3 C 8.1 km/h
439 18-07-2019 12:30:00 24.5 C 12.09 g/m*3 24.5 C 4.8 km/h
440 18-07-2019 12:35:00 24.7 C 12 g/m*3 24.7 C 4.8 km/h
441 18-07-2019 12:40:00 24.7 C 11.77 g/m*3 24.7 C 3.2 km/h
442 18-07-2019 12:45:00 24.7 C 11.77 g/m*3 24.7 C 6.4 km/h
443 18-07-2019 12:50:00 24.7 C 12.22 g/m*3 24.7 C 4.8 km/h
444 18-07-2019 12:55:00 24.6 C 11.25 g/m*3 24.6 C 3.2 km/h
445 18-07-2019 13:00:00 24.8 C 11.61 g/m*3 24.8 C 6.4 km/h
446 18-07-2019 13:05:00 24.9 C 11.45 g/m*3 24.9 C 3.2 km/h
447 18-07-2019 13:10:00 25.1 C 11.57 g/m*3 25.1 C 4.8 km/h
448 18-07-2019 13:15:00 25.2 C 11.64 g/m*3 25.2 C 3.2 km/h
449 18-07-2019 13:20:00 25.4 C 11.77 g/m*3 25.4 C 8.1 km/h
450 18-07-2019 13:25:00 25.6 C 11.67 g/m*3 25.6 C 4.8 km/h
Sensor: Nr:Datum:Temp:Abs-Feuchte:Windchill:Wind:
Aussen-T/F 451 18-07-2019 13:30:00 25.8 C 11.8 g/m*3 25.8 C 4.8 km/h
452 18-07-2019 13:35:00 26.1 C 12.24 g/m*3 26.1 C 4.8 km/h
453 18-07-2019 13:40:00 26.3 C 12.38 g/m*3 26.3 C 6.4 km/h
454 18-07-2019 13:45:00 26.3 C 11.64 g/m*3 26.3 C 6.4 km/h
455 18-07-2019 13:50:00 26.4 C 12.2 g/m*3 26.4 C 4.8 km/h
456 18-07-2019 13:55:00 26.7 C 11.14 g/m*3 26.7 C 16.1 km/h
457 18-07-2019 14:00:00 26.8 C 10.69 g/m*3 26.8 C 19.3 km/h
458 18-07-2019 14:05:00 27 C 11.58 g/m*3 27 C 9.7 km/h
459 18-07-2019 14:10:00 27.3 C 10.99 g/m*3 27.3 C 17.7 km/h
460 18-07-2019 14:15:00 27.4 C 10.79 g/m*3 27.4 C 12.9 km/h
461 18-07-2019 14:20:00 27.6 C 10.64 g/m*3 27.6 C 14.5 km/h
462 18-07-2019 14:25:00 27.5 C 10.32 g/m*3 27.5 C 8.1 km/h
463 18-07-2019 14:30:00 27.3 C 10.73 g/m*3 27.3 C 6.4 km/h
464 18-07-2019 14:35:00 27.2 C 10.93 g/m*3 27.2 C 6.4 km/h
465 18-07-2019 14:40:00 27.2 C 10.41 g/m*3 27.2 C 6.4 km/h
466 18-07-2019 14:45:00 27.2 C 10.93 g/m*3 27.2 C 6.4 km/h
467 18-07-2019 14:50:00 27.1 C 10.09 g/m*3 27.1 C 9.7 km/h
468 18-07-2019 14:55:00 26.9 C 10.24 g/m*3 26.9 C 6.4 km/h
469 18-07-2019 15:00:00 26.8 C 9.93 g/m*3 26.8 C 9.7 km/h
470 18-07-2019 15:05:00 26.8 C 11.45 g/m*3 26.8 C 3.2 km/h
471 18-07-2019 15:10:00 26.6 C 10.57 g/m*3 26.6 C 6.4 km/h
472 18-07-2019 15:15:00 26.3 C 10.89 g/m*3 26.3 C 11.3 km/h
473 18-07-2019 15:20:00 26.1 C 10.77 g/m*3 26.1 C 9.7 km/h
474 18-07-2019 15:25:00 25.9 C 11.62 g/m*3 25.9 C 4.8 km/h
475 18-07-2019 15:30:00 25.8 C 12.04 g/m*3 25.8 C 4.8 km/h
Sensor: Nr:Datum:Temp:Abs-Feuchte:Windchill:Wind:
Aussen-T/F 476 18-07-2019 15:35:00 25.7 C 10.29 g/m*3 25.7 C 9.7 km/h
477 18-07-2019 15:40:00 25.7 C 10.53 g/m*3 25.7 C 8.1 km/h
478 18-07-2019 15:45:00 25.6 C 10.24 g/m*3 25.6 C 14.5 km/h
479 18-07-2019 15:50:00 25.6 C 10.71 g/m*3 25.6 C 8.1 km/h
480 18-07-2019 15:55:00 25.6 C 12.38 g/m*3 25.6 C 0 km/h
481 18-07-2019 16:00:00 25.5 C 12.31 g/m*3 25.5 C 0 km/h
482 18-07-2019 16:05:00 25.2 C 11.87 g/m*3 25.2 C 0 km/h
483 18-07-2019 16:10:00 24.9 C 12.13 g/m*3 24.9 C 4.8 km/h
484 18-07-2019 16:15:00 24.7 C 12.45 g/m*3 24.7 C 1.6 km/h
485 18-07-2019 16:20:00 24.5 C 12.76 g/m*3 24.5 C 1.6 km/h
486 18-07-2019 16:25:00 24.6 C 11.48 g/m*3 24.6 C 12.9 km/h
487 18-07-2019 16:30:00 24.6 C 11.25 g/m*3 24.6 C 16.1 km/h
488 18-07-2019 16:35:00 24.6 C 11.25 g/m*3 24.6 C 11.3 km/h
489 18-07-2019 16:40:00 24.5 C 11.64 g/m*3 24.5 C 9.7 km/h
490 18-07-2019 16:45:00 24.6 C 11.7 g/m*3 24.6 C 6.4 km/h
491 18-07-2019 16:50:00 24.7 C 11.54 g/m*3 24.7 C 9.7 km/h
492 18-07-2019 16:55:00 24.8 C 12.52 g/m*3 24.8 C 6.4 km/h
493 18-07-2019 17:00:00 24.9 C 11.45 g/m*3 24.9 C 11.3 km/h
494 18-07-2019 17:05:00 24.9 C 11.45 g/m*3 24.9 C 4.8 km/h
495 18-07-2019 17:10:00 24.9 C 12.13 g/m*3 24.9 C 4.8 km/h
496 18-07-2019 17:15:00 24.8 C 12.29 g/m*3 24.8 C 0 km/h
497 18-07-2019 17:20:00 24.8 C 12.97 g/m*3 24.8 C 3.2 km/h
498 18-07-2019 17:25:00 24.8 C 12.52 g/m*3 24.8 C 1.6 km/h
499 18-07-2019 17:30:00 24.8 C 12.52 g/m*3 24.8 C 6.4 km/h
500 18-07-2019 17:35:00 24.9 C 13.05 g/m*3 24.9 C 0 km/h
Sensor: Nr:Datum:Temp:Abs-Feuchte:Windchill:Wind:
Aussen-T/F 501 18-07-2019 17:40:00 24.9 C 13.28 g/m*3 24.9 C 0 km/h
502 18-07-2019 17:45:00 24.8 C 13.43 g/m*3 24.8 C 0 km/h
503 18-07-2019 17:50:00 24.8 C 14.11 g/m*3 24.8 C 0 km/h
504 18-07-2019 17:55:00 24.8 C 14.34 g/m*3 24.8 C 0 km/h
505 18-07-2019 18:00:00 24.7 C 12.68 g/m*3 24.7 C 1.6 km/h
506 18-07-2019 18:05:00 24.8 C 13.88 g/m*3 24.8 C 0 km/h
507 18-07-2019 18:10:00 24.8 C 13.66 g/m*3 24.8 C 3.2 km/h
508 18-07-2019 18:15:00 24.8 C 11.84 g/m*3 24.8 C 6.4 km/h
509 18-07-2019 18:20:00 24.7 C 12.22 g/m*3 24.7 C 4.8 km/h
510 18-07-2019 18:25:00 24.7 C 11.54 g/m*3 24.7 C 1.6 km/h
511 18-07-2019 18:30:00 24.6 C 14.85 g/m*3 24.6 C 0 km/h
512 18-07-2019 18:35:00 24.2 C 14.52 g/m*3 24.2 C 1.6 km/h
513 18-07-2019 18:40:00 23.5 C 14.8 g/m*3 23.5 C 1.6 km/h
514 18-07-2019 18:45:00 22.8 C 14.43 g/m*3 22.8 C 1.6 km/h
515 18-07-2019 18:50:00 22.3 C 14.41 g/m*3 22.3 C 0 km/h
516 18-07-2019 18:55:00 21.8 C 14.01 g/m*3 21.8 C 0 km/h
517 18-07-2019 19:00:00 21.6 C 14.03 g/m*3 21.6 C 0 km/h
518 18-07-2019 19:05:00 21.4 C 14.06 g/m*3 21.4 C 0 km/h
519 18-07-2019 19:10:00 21.3 C 14.17 g/m*3 21.3 C 0 km/h
520 18-07-2019 19:15:00 21.2 C 13.9 g/m*3 21.2 C 0 km/h
521 18-07-2019 19:20:00 21.2 C 14.08 g/m*3 21.2 C 0 km/h
522 18-07-2019 19:25:00 21.1 C 13.82 g/m*3 21.1 C 0 km/h
523 18-07-2019 19:30:00 21 C 13.74 g/m*3 21 C 0 km/h
524 18-07-2019 19:35:00 20.9 C 13.66 g/m*3 20.9 C 0 km/h
525 18-07-2019 19:40:00 20.9 C 13.48 g/m*3 20.9 C 0 km/h
Sensor: Nr:Datum:Temp:Abs-Feuchte:Windchill:Wind:
Aussen-T/F 526 18-07-2019 19:45:00 20.8 C 13.22 g/m*3 20.8 C 0 km/h
527 18-07-2019 19:50:00 20.7 C 12.96 g/m*3 20.7 C 0 km/h
528 18-07-2019 19:55:00 20.7 C 12.78 g/m*3 20.7 C 0 km/h
529 18-07-2019 20:00:00 20.7 C 12.96 g/m*3 20.7 C 0 km/h
530 18-07-2019 20:05:00 20.7 C 12.78 g/m*3 20.7 C 0 km/h
531 18-07-2019 20:10:00 20.8 C 13.04 g/m*3 20.8 C 0 km/h
532 18-07-2019 20:15:00 20.8 C 12.86 g/m*3 20.8 C 0 km/h
533 18-07-2019 20:20:00 20.9 C 12.75 g/m*3 20.9 C 0 km/h
534 18-07-2019 20:25:00 21 C 12.82 g/m*3 21 C 0 km/h
535 18-07-2019 20:30:00 21 C 12.64 g/m*3 21 C 0 km/h
536 18-07-2019 20:35:00 21 C 12.64 g/m*3 21 C 0 km/h
537 18-07-2019 20:40:00 21 C 12.64 g/m*3 21 C 0 km/h
538 18-07-2019 20:45:00 20.9 C 12.57 g/m*3 20.9 C 1.6 km/h
539 18-07-2019 20:50:00 20.8 C 12.49 g/m*3 20.8 C 0 km/h
540 18-07-2019 20:55:00 20.8 C 12.49 g/m*3 20.8 C 0 km/h
541 18-07-2019 21:00:00 20.8 C 12.31 g/m*3 20.8 C 0 km/h
542 18-07-2019 21:05:00 20.7 C 12.24 g/m*3 20.7 C 0 km/h
543 18-07-2019 21:10:00 20.6 C 12.35 g/m*3 20.6 C 0 km/h
544 18-07-2019 21:15:00 20.6 C 12.17 g/m*3 20.6 C 0 km/h
545 18-07-2019 21:20:00 20.4 C 12.21 g/m*3 20.4 C 0 km/h
546 18-07-2019 21:25:00 20.4 C 12.21 g/m*3 20.4 C 0 km/h
547 18-07-2019 21:30:00 20.3 C 12.14 g/m*3 20.3 C 0 km/h
548 18-07-2019 21:35:00 20.2 C 12.06 g/m*3 20.2 C 0 km/h
549 18-07-2019 21:40:00 20.2 C 12.24 g/m*3 20.2 C 0 km/h
550 18-07-2019 21:45:00 20.1 C 12.17 g/m*3 20.1 C 0 km/h
Sensor: Nr:Datum:Temp:Abs-Feuchte:Windchill:Wind:
Aussen-T/F 551 18-07-2019 21:50:00 20 C 12.1 g/m*3 20 C 0 km/h
552 18-07-2019 21:55:00 19.9 C 12.03 g/m*3 19.9 C 0 km/h
553 18-07-2019 22:00:00 19.8 C 11.96 g/m*3 19.8 C 0 km/h
554 18-07-2019 22:05:00 19.8 C 12.13 g/m*3 19.8 C 0 km/h
555 18-07-2019 22:10:00 19.8 C 12.13 g/m*3 19.8 C 0 km/h
556 18-07-2019 22:15:00 19.7 C 12.06 g/m*3 19.7 C 0 km/h
557 18-07-2019 22:20:00 19.7 C 12.06 g/m*3 19.7 C 0 km/h
558 18-07-2019 22:25:00 19.7 C 12.23 g/m*3 19.7 C 0 km/h
559 18-07-2019 22:30:00 19.7 C 12.4 g/m*3 19.7 C 1.6 km/h
560 18-07-2019 22:35:00 19.7 C 12.4 g/m*3 19.7 C 1.6 km/h
561 18-07-2019 22:40:00 19.6 C 12.15 g/m*3 19.6 C 0 km/h
562 18-07-2019 22:45:00 19.6 C 12.15 g/m*3 19.6 C 0 km/h
563 18-07-2019 22:50:00 19.5 C 12.08 g/m*3 19.5 C 0 km/h
564 18-07-2019 22:55:00 19.4 C 12.01 g/m*3 19.4 C 0 km/h
565 18-07-2019 23:00:00 19.4 C 12.01 g/m*3 19.4 C 0 km/h
566 18-07-2019 23:05:00 19.4 C 12.01 g/m*3 19.4 C 0 km/h
567 18-07-2019 23:10:00 19.4 C 12.01 g/m*3 19.4 C 0 km/h
568 18-07-2019 23:15:00 19.3 C 11.94 g/m*3 19.3 C 0 km/h
569 18-07-2019 23:20:00 19.3 C 12.11 g/m*3 19.3 C 0 km/h
570 18-07-2019 23:25:00 19.3 C 12.11 g/m*3 19.3 C 0 km/h
571 18-07-2019 23:30:00 19.3 C 12.11 g/m*3 19.3 C 0 km/h
572 18-07-2019 23:35:00 19.3 C 12.11 g/m*3 19.3 C 0 km/h
573 18-07-2019 23:40:00 19.3 C 11.94 g/m*3 19.3 C 0 km/h
574 18-07-2019 23:45:00 19.4 C 12.18 g/m*3 19.4 C 0 km/h
575 18-07-2019 23:50:00 19.4 C 12.18 g/m*3 19.4 C 0 km/h
Sensor: Nr:Datum:Temp:Abs-Feuchte:Windchill:Wind:
Aussen-T/F 576 18-07-2019 23:55:00 19.5 C 12.08 g/m*3 19.5 C 0 km/h
577 19-07-2019 00:00:00 19.6 C 12.15 g/m*3 19.6 C 0 km/h
578 19-07-2019 00:05:00 19.6 C 12.32 g/m*3 19.6 C 0 km/h
579 19-07-2019 00:10:00 19.5 C 12.25 g/m*3 19.5 C 0 km/h
580 19-07-2019 00:15:00 19.5 C 12.42 g/m*3 19.5 C 0 km/h
581 19-07-2019 00:20:00 19.4 C 12.35 g/m*3 19.4 C 0 km/h
582 19-07-2019 00:25:00 19.3 C 12.27 g/m*3 19.3 C 0 km/h
583 19-07-2019 00:30:00 19.3 C 12.27 g/m*3 19.3 C 0 km/h
584 19-07-2019 00:35:00 19.2 C 12.2 g/m*3 19.2 C 0 km/h
585 19-07-2019 00:40:00 19.2 C 12.2 g/m*3 19.2 C 0 km/h
586 19-07-2019 00:45:00 19.2 C 12.37 g/m*3 19.2 C 0 km/h
587 19-07-2019 00:50:00 19.1 C 12.46 g/m*3 19.1 C 0 km/h
588 19-07-2019 00:55:00 19.1 C 12.46 g/m*3 19.1 C 0 km/h
589 19-07-2019 01:00:00 19 C 12.39 g/m*3 19 C 0 km/h
590 19-07-2019 01:05:00 18.9 C 12.47 g/m*3 18.9 C 0 km/h
591 19-07-2019 01:10:00 18.9 C 12.64 g/m*3 18.9 C 0 km/h
592 19-07-2019 01:15:00 18.9 C 12.8 g/m*3 18.9 C 0 km/h
593 19-07-2019 01:20:00 18.8 C 13.05 g/m*3 18.8 C 0 km/h
594 19-07-2019 01:25:00 18.7 C 13.29 g/m*3 18.7 C 0 km/h
595 19-07-2019 01:30:00 18.5 C 13.29 g/m*3 18.5 C 0 km/h
596 19-07-2019 01:35:00 18.3 C 13.13 g/m*3 18.3 C 0 km/h
597 19-07-2019 01:40:00 18.1 C 13.13 g/m*3 18.1 C 0 km/h
598 19-07-2019 01:45:00 17.9 C 13.28 g/m*3 17.9 C 0 km/h
599 19-07-2019 01:50:00 17.8 C 13.2 g/m*3 17.8 C 0 km/h
600 19-07-2019 01:55:00 17.7 C 13.28 g/m*3 17.7 C 0 km/h
Sensor: Nr:Datum:Temp:Abs-Feuchte:Windchill:Wind:
Aussen-T/F 601 19-07-2019 02:00:00 17.6 C 13.2 g/m*3 17.6 C 0 km/h
602 19-07-2019 02:05:00 17.4 C 13.19 g/m*3 17.4 C 0 km/h
603 19-07-2019 02:10:00 17.3 C 13.11 g/m*3 17.3 C 0 km/h
604 19-07-2019 02:15:00 17.2 C 13.03 g/m*3 17.2 C 0 km/h
605 19-07-2019 02:20:00 17.1 C 12.96 g/m*3 17.1 C 0 km/h
606 19-07-2019 02:25:00 17 C 13.02 g/m*3 17 C 0 km/h
607 19-07-2019 02:30:00 16.9 C 12.94 g/m*3 16.9 C 0 km/h
608 19-07-2019 02:35:00 16.9 C 13.09 g/m*3 16.9 C 0 km/h
609 19-07-2019 02:40:00 16.9 C 13.09 g/m*3 16.9 C 0 km/h
610 19-07-2019 02:45:00 16.8 C 13.01 g/m*3 16.8 C 0 km/h
611 19-07-2019 02:50:00 16.8 C 13.01 g/m*3 16.8 C 0 km/h
612 19-07-2019 02:55:00 16.8 C 13.01 g/m*3 16.8 C 0 km/h
613 19-07-2019 03:00:00 16.7 C 12.93 g/m*3 16.7 C 0 km/h
614 19-07-2019 03:05:00 16.7 C 12.93 g/m*3 16.7 C 0 km/h
615 19-07-2019 03:10:00 16.7 C 13.07 g/m*3 16.7 C 0 km/h
616 19-07-2019 03:15:00 16.7 C 13.07 g/m*3 16.7 C 0 km/h
617 19-07-2019 03:20:00 16.6 C 13 g/m*3 16.6 C 0 km/h
618 19-07-2019 03:25:00 16.6 C 13 g/m*3 16.6 C 0 km/h
619 19-07-2019 03:30:00 16.6 C 13.14 g/m*3 16.6 C 0 km/h
620 19-07-2019 03:35:00 16.6 C 13.14 g/m*3 16.6 C 0 km/h
621 19-07-2019 03:40:00 16.6 C 13.14 g/m*3 16.6 C 0 km/h
622 19-07-2019 03:45:00 16.5 C 13.06 g/m*3 16.5 C 0 km/h
623 19-07-2019 03:50:00 16.5 C 13.06 g/m*3 16.5 C 0 km/h
624 19-07-2019 03:55:00 16.5 C 13.06 g/m*3 16.5 C 0 km/h
625 19-07-2019 04:00:00 16.5 C 13.06 g/m*3 16.5 C 0 km/h
Sensor: Nr:Datum:Temp:Abs-Feuchte:Windchill:Wind:
Aussen-T/F 626 19-07-2019 04:05:00 16.4 C 12.98 g/m*3 16.4 C 0 km/h
627 19-07-2019 04:10:00 16.4 C 12.98 g/m*3 16.4 C 0 km/h
628 19-07-2019 04:15:00 16.4 C 12.98 g/m*3 16.4 C 0 km/h
629 19-07-2019 04:20:00 16.4 C 12.98 g/m*3 16.4 C 0 km/h
630 19-07-2019 04:25:00 16.4 C 12.98 g/m*3 16.4 C 0 km/h
631 19-07-2019 04:30:00 16.4 C 12.98 g/m*3 16.4 C 0 km/h
632 19-07-2019 04:35:00 16.4 C 13.12 g/m*3 16.4 C 0 km/h
633 19-07-2019 04:40:00 16.3 C 13.04 g/m*3 16.3 C 0 km/h
634 19-07-2019 04:45:00 16.3 C 13.04 g/m*3 16.3 C 0 km/h
635 19-07-2019 04:50:00 16.3 C 13.04 g/m*3 16.3 C 0 km/h
636 19-07-2019 04:55:00 16.3 C 13.04 g/m*3 16.3 C 0 km/h
637 19-07-2019 05:00:00 16.3 C 13.04 g/m*3 16.3 C 0 km/h
638 19-07-2019 05:05:00 16.3 C 13.04 g/m*3 16.3 C 0 km/h
639 19-07-2019 05:10:00 16.3 C 13.04 g/m*3 16.3 C 0 km/h
640 19-07-2019 05:15:00 16.3 C 13.04 g/m*3 16.3 C 0 km/h
641 19-07-2019 05:20:00 16.3 C 13.04 g/m*3 16.3 C 0 km/h
642 19-07-2019 05:25:00 16.3 C 13.04 g/m*3 16.3 C 0 km/h
643 19-07-2019 05:30:00 16.3 C 13.04 g/m*3 16.3 C 0 km/h
644 19-07-2019 05:35:00 16.3 C 13.04 g/m*3 16.3 C 0 km/h
645 19-07-2019 05:40:00 16.3 C 13.04 g/m*3 16.3 C 0 km/h
646 19-07-2019 05:45:00 16.3 C 13.04 g/m*3 16.3 C 0 km/h
647 19-07-2019 05:50:00 16.3 C 13.18 g/m*3 16.3 C 0 km/h
648 19-07-2019 05:55:00 16.3 C 13.18 g/m*3 16.3 C 0 km/h
649 19-07-2019 06:00:00 16.3 C 13.18 g/m*3 16.3 C 0 km/h
650 19-07-2019 06:05:00 16.3 C 13.18 g/m*3 16.3 C 0 km/h
Sensor: Nr:Datum:Temp:Abs-Feuchte:Windchill:Wind:
Aussen-T/F 651 19-07-2019 06:10:00 16.3 C 13.18 g/m*3 16.3 C 0 km/h
652 19-07-2019 06:15:00 16.3 C 13.18 g/m*3 16.3 C 0 km/h
653 19-07-2019 06:20:00 16.3 C 13.18 g/m*3 16.3 C 0 km/h
654 19-07-2019 06:25:00 16.3 C 13.18 g/m*3 16.3 C 0 km/h
655 19-07-2019 06:30:00 16.4 C 13.26 g/m*3 16.4 C 0 km/h
656 19-07-2019 06:35:00 16.4 C 13.26 g/m*3 16.4 C 0 km/h
657 19-07-2019 06:40:00 16.4 C 13.26 g/m*3 16.4 C 0 km/h
658 19-07-2019 06:45:00 16.4 C 13.26 g/m*3 16.4 C 0 km/h
659 19-07-2019 06:50:00 16.4 C 13.26 g/m*3 16.4 C 0 km/h
660 19-07-2019 06:55:00 16.4 C 13.26 g/m*3 16.4 C 0 km/h
661 19-07-2019 07:00:00 16.5 C 13.34 g/m*3 16.5 C 0 km/h
662 19-07-2019 07:05:00 16.6 C 13.42 g/m*3 16.6 C 0 km/h
663 19-07-2019 07:10:00 16.6 C 13.42 g/m*3 16.6 C 0 km/h
664 19-07-2019 07:15:00 16.6 C 13.42 g/m*3 16.6 C 0 km/h
665 19-07-2019 07:20:00 16.6 C 13.42 g/m*3 16.6 C 0 km/h
666 19-07-2019 07:25:00 16.7 C 13.5 g/m*3 16.7 C 0 km/h
667 19-07-2019 07:30:00 16.7 C 13.5 g/m*3 16.7 C 0 km/h
668 19-07-2019 07:35:00 16.7 C 13.5 g/m*3 16.7 C 0 km/h
669 19-07-2019 07:40:00 16.8 C 13.58 g/m*3 16.8 C 0 km/h
670 19-07-2019 07:45:00 16.8 C 13.73 g/m*3 16.8 C 0 km/h
671 19-07-2019 07:50:00 16.9 C 13.81 g/m*3 16.9 C 0 km/h
672 19-07-2019 07:55:00 16.9 C 13.81 g/m*3 16.9 C 0 km/h
673 19-07-2019 08:00:00 16.9 C 13.81 g/m*3 16.9 C 0 km/h
674 19-07-2019 08:05:00 16.9 C 13.81 g/m*3 16.9 C 0 km/h
675 19-07-2019 08:10:00 17 C 13.89 g/m*3 17 C 0 km/h
Sensor: Nr:Datum:Temp:Abs-Feuchte:Windchill:Wind:
Aussen-T/F 676 19-07-2019 08:15:00 17.1 C 13.97 g/m*3 17.1 C 0 km/h
677 19-07-2019 08:20:00 17.1 C 13.97 g/m*3 17.1 C 0 km/h
678 19-07-2019 08:25:00 17.2 C 14.06 g/m*3 17.2 C 0 km/h
679 19-07-2019 08:30:00 17.3 C 14.14 g/m*3 17.3 C 0 km/h
680 19-07-2019 08:35:00 17.4 C 14.23 g/m*3 17.4 C 0 km/h
681 19-07-2019 08:40:00 17.4 C 14.23 g/m*3 17.4 C 0 km/h
682 19-07-2019 08:45:00 17.4 C 14.23 g/m*3 17.4 C 0 km/h
683 19-07-2019 08:50:00 17.5 C 14.31 g/m*3 17.5 C 0 km/h
684 19-07-2019 08:55:00 17.6 C 14.4 g/m*3 17.6 C 4.8 km/h
685 19-07-2019 09:00:00 17.7 C 14.48 g/m*3 17.7 C 0 km/h
686 19-07-2019 09:05:00 17.8 C 14.57 g/m*3 17.8 C 0 km/h
687 19-07-2019 09:10:00 17.8 C 14.57 g/m*3 17.8 C 1.6 km/h
688 19-07-2019 09:15:00 17.8 C 14.42 g/m*3 17.8 C 1.6 km/h
689 19-07-2019 09:20:00 17.9 C 14.5 g/m*3 17.9 C 0 km/h
690 19-07-2019 09:25:00 17.9 C 14.5 g/m*3 17.9 C 1.6 km/h
691 19-07-2019 09:30:00 18.1 C 14.68 g/m*3 18.1 C 0 km/h
692 19-07-2019 09:35:00 18.1 C 14.68 g/m*3 18.1 C 0 km/h
693 19-07-2019 09:40:00 18.2 C 14.61 g/m*3 18.2 C 3.2 km/h
694 19-07-2019 09:45:00 18.3 C 14.7 g/m*3 18.3 C 6.4 km/h
695 19-07-2019 09:50:00 18.3 C 14.7 g/m*3 18.3 C 8.1 km/h
696 19-07-2019 09:55:00 18.4 C 14.63 g/m*3 18.4 C 8.1 km/h
697 19-07-2019 10:00:00 18.6 C 14.8 g/m*3 18.6 C 3.2 km/h
698 19-07-2019 10:05:00 18.8 C 15.14 g/m*3 18.8 C 1.6 km/h
699 19-07-2019 10:10:00 18.9 C 14.9 g/m*3 18.9 C 6.4 km/h
700 19-07-2019 10:15:00 19 C 14.99 g/m*3 19 C 6.4 km/h
Sensor: Nr:Datum:Temp:Abs-Feuchte:Windchill:Wind:
Aussen-T/F 701 19-07-2019 10:20:00 19.1 C 14.92 g/m*3 19.1 C 6.4 km/h
702 19-07-2019 10:25:00 19.1 C 14.75 g/m*3 19.1 C 4.8 km/h
703 19-07-2019 10:30:00 19.3 C 14.93 g/m*3 19.3 C 9.7 km/h
704 19-07-2019 10:35:00 19.5 C 14.94 g/m*3 19.5 C 8.1 km/h
705 19-07-2019 10:40:00 19.6 C 15.02 g/m*3 19.6 C 4.8 km/h
706 19-07-2019 10:45:00 19.7 C 14.94 g/m*3 19.7 C 8.1 km/h
707 19-07-2019 10:50:00 19.8 C 15.2 g/m*3 19.8 C 3.2 km/h
708 19-07-2019 10:55:00 19.9 C 14.95 g/m*3 19.9 C 11.3 km/h
709 19-07-2019 11:00:00 19.9 C 14.95 g/m*3 19.9 C 4.8 km/h
710 19-07-2019 11:05:00 20 C 15.04 g/m*3 20 C 4.8 km/h
711 19-07-2019 11:10:00 20 C 14.69 g/m*3 20 C 9.7 km/h
712 19-07-2019 11:15:00 20.1 C 14.78 g/m*3 20.1 C 8.1 km/h
713 19-07-2019 11:20:00 20.3 C 14.95 g/m*3 20.3 C 8.1 km/h
714 19-07-2019 11:25:00 20.6 C 15.03 g/m*3 20.6 C 6.4 km/h
715 19-07-2019 11:30:00 20.8 C 15.03 g/m*3 20.8 C 8.1 km/h
716 19-07-2019 11:35:00 20.9 C 15.12 g/m*3 20.9 C 9.7 km/h
717 19-07-2019 11:40:00 20.9 C 14.75 g/m*3 20.9 C 8.1 km/h
718 19-07-2019 11:45:00 20.8 C 14.67 g/m*3 20.8 C 8.1 km/h
719 19-07-2019 11:50:00 20.7 C 14.76 g/m*3 20.7 C 1.6 km/h
720 19-07-2019 11:55:00 20.7 C 14.58 g/m*3 20.7 C 3.2 km/h
721 19-07-2019 12:00:00 20.4 C 14.68 g/m*3 20.4 C 8.1 km/h
722 19-07-2019 12:05:00 20.2 C 14.69 g/m*3 20.2 C 6.4 km/h
723 19-07-2019 12:10:00 20.1 C 14.95 g/m*3 20.1 C 0 km/h
724 19-07-2019 12:15:00 20.1 C 15.3 g/m*3 20.1 C 0 km/h
725 19-07-2019 12:20:00 19.9 C 15.12 g/m*3 19.9 C 1.6 km/h
Sensor: Nr:Datum:Temp:Abs-Feuchte:Windchill:Wind:
Aussen-T/F 726 19-07-2019 12:25:00 19.8 C 14.86 g/m*3 19.8 C 1.6 km/h
727 19-07-2019 12:30:00 19.7 C 14.94 g/m*3 19.7 C 1.6 km/h
728 19-07-2019 12:35:00 19.7 C 14.77 g/m*3 19.7 C 3.2 km/h
729 19-07-2019 12:40:00 19.8 C 14.86 g/m*3 19.8 C 3.2 km/h
730 19-07-2019 12:45:00 20.1 C 15.12 g/m*3 20.1 C 1.6 km/h
731 19-07-2019 12:50:00 20.3 C 14.95 g/m*3 20.3 C 4.8 km/h
732 19-07-2019 12:55:00 20.4 C 14.86 g/m*3 20.4 C 3.2 km/h
733 19-07-2019 13:00:00 20.6 C 15.21 g/m*3 20.6 C 0 km/h
734 19-07-2019 13:05:00 20.7 C 15.3 g/m*3 20.7 C 1.6 km/h
735 19-07-2019 13:10:00 20.9 C 15.12 g/m*3 20.9 C 8.1 km/h
736 19-07-2019 13:15:00 21.2 C 14.46 g/m*3 21.2 C 8.1 km/h
737 19-07-2019 13:20:00 21.6 C 14.41 g/m*3 21.6 C 8.1 km/h
738 19-07-2019 13:25:00 22.1 C 14.64 g/m*3 22.1 C 9.7 km/h
739 19-07-2019 13:30:00 22.5 C 14.78 g/m*3 22.5 C 11.3 km/h
740 19-07-2019 13:35:00 22.8 C 14.22 g/m*3 22.8 C 9.7 km/h
741 19-07-2019 13:40:00 22.9 C 14.1 g/m*3 22.9 C 6.4 km/h
742 19-07-2019 13:45:00 22.9 C 13.69 g/m*3 22.9 C 9.7 km/h
743 19-07-2019 13:50:00 22.8 C 13.61 g/m*3 22.8 C 8.1 km/h
744 19-07-2019 13:55:00 22.7 C 13.94 g/m*3 22.7 C 9.7 km/h
745 19-07-2019 14:00:00 22.7 C 14.34 g/m*3 22.7 C 6.4 km/h
746 19-07-2019 14:05:00 22.7 C 13.94 g/m*3 22.7 C 4.8 km/h
747 19-07-2019 14:10:00 22.7 C 13.94 g/m*3 22.7 C 6.4 km/h
748 19-07-2019 14:15:00 22.8 C 14.43 g/m*3 22.8 C 0 km/h
749 19-07-2019 14:20:00 23 C 12.74 g/m*3 23 C 14.5 km/h
750 19-07-2019 14:25:00 23.4 C 13.04 g/m*3 23.4 C 12.9 km/h
Sensor: Nr:Datum:Temp:Abs-Feuchte:Windchill:Wind:
Aussen-T/F 751 19-07-2019 14:30:00 23.8 C 12.05 g/m*3 23.8 C 12.9 km/h
752 19-07-2019 14:35:00 23.9 C 12.11 g/m*3 23.9 C 12.9 km/h
753 19-07-2019 14:40:00 24.2 C 12.54 g/m*3 24.2 C 12.9 km/h
754 19-07-2019 14:45:00 24.4 C 11.35 g/m*3 24.4 C 17.7 km/h
755 19-07-2019 14:50:00 24.3 C 11.95 g/m*3 24.3 C 14.5 km/h
756 19-07-2019 14:55:00 24.4 C 11.79 g/m*3 24.4 C 12.9 km/h
757 19-07-2019 15:00:00 24.5 C 12.09 g/m*3 24.5 C 12.9 km/h
758 19-07-2019 15:05:00 24.6 C 11.48 g/m*3 24.6 C 9.7 km/h
759 19-07-2019 15:10:00 24.6 C 12.15 g/m*3 24.6 C 11.3 km/h
760 19-07-2019 15:15:00 24.8 C 12.29 g/m*3 24.8 C 11.3 km/h
761 19-07-2019 15:20:00 25 C 12.43 g/m*3 25 C 12.9 km/h
762 19-07-2019 15:25:00 24.9 C 12.13 g/m*3 24.9 C 8.1 km/h
763 19-07-2019 15:30:00 24.9 C 11.67 g/m*3 24.9 C 8.1 km/h
764 19-07-2019 15:35:00 25.1 C 12.04 g/m*3 25.1 C 16.1 km/h
765 19-07-2019 15:40:00 25.2 C 12.57 g/m*3 25.2 C 8.1 km/h
766 19-07-2019 15:45:00 25.1 C 12.27 g/m*3 25.1 C 8.1 km/h
767 19-07-2019 15:50:00 24.9 C 12.13 g/m*3 24.9 C 12.9 km/h
768 19-07-2019 15:55:00 24.9 C 11.67 g/m*3 24.9 C 9.7 km/h
769 19-07-2019 16:00:00 24.9 C 11.9 g/m*3 24.9 C 12.9 km/h
770 19-07-2019 16:05:00 24.9 C 11.45 g/m*3 24.9 C 11.3 km/h
771 19-07-2019 16:10:00 24.9 C 11.67 g/m*3 24.9 C 9.7 km/h
772 19-07-2019 16:15:00 24.9 C 11.45 g/m*3 24.9 C 11.3 km/h
773 19-07-2019 16:20:00 25 C 11.97 g/m*3 25 C 8.1 km/h
774 19-07-2019 16:25:00 25 C 11.74 g/m*3 25 C 9.7 km/h
775 19-07-2019 16:30:00 25.2 C 11.64 g/m*3 25.2 C 8.1 km/h
Sensor: Nr:Datum:Temp:Abs-Feuchte:Windchill:Wind:
Aussen-T/F 776 19-07-2019 16:35:00 25.4 C 11.77 g/m*3 25.4 C 11.3 km/h
777 19-07-2019 16:40:00 25.7 C 11.97 g/m*3 25.7 C 11.3 km/h
778 19-07-2019 16:45:00 25.8 C 12.04 g/m*3 25.8 C 9.7 km/h
779 19-07-2019 16:50:00 25.6 C 12.14 g/m*3 25.6 C 8.1 km/h
780 19-07-2019 16:55:00 25.3 C 11.71 g/m*3 25.3 C 11.3 km/h
781 19-07-2019 17:00:00 25.5 C 12.07 g/m*3 25.5 C 4.8 km/h
782 19-07-2019 17:05:00 25.9 C 12.35 g/m*3 25.9 C 6.4 km/h
783 19-07-2019 17:10:00 26 C 12.42 g/m*3 26 C 8.1 km/h
784 19-07-2019 17:15:00 26.1 C 12 g/m*3 26.1 C 8.1 km/h
785 19-07-2019 17:20:00 26.3 C 11.88 g/m*3 26.3 C 9.7 km/h
786 19-07-2019 17:25:00 26.5 C 11.51 g/m*3 26.5 C 14.5 km/h
787 19-07-2019 17:30:00 26.2 C 11.57 g/m*3 26.2 C 11.3 km/h
788 19-07-2019 17:35:00 26 C 11.93 g/m*3 26 C 8.1 km/h
789 19-07-2019 17:40:00 25.8 C 11.56 g/m*3 25.8 C 6.4 km/h
790 19-07-2019 17:45:00 25.6 C 12.14 g/m*3 25.6 C 9.7 km/h
791 19-07-2019 17:50:00 25.4 C 12.48 g/m*3 25.4 C 8.1 km/h
792 19-07-2019 17:55:00 25.7 C 12.21 g/m*3 25.7 C 3.2 km/h
793 19-07-2019 18:00:00 25.9 C 12.1 g/m*3 25.9 C 6.4 km/h
794 19-07-2019 18:05:00 25.9 C 12.1 g/m*3 25.9 C 9.7 km/h
795 19-07-2019 18:10:00 25.7 C 11.73 g/m*3 25.7 C 6.4 km/h
796 19-07-2019 18:15:00 25.7 C 11.73 g/m*3 25.7 C 6.4 km/h
797 19-07-2019 18:20:00 25.6 C 11.9 g/m*3 25.6 C 6.4 km/h
798 19-07-2019 18:25:00 25.4 C 11.54 g/m*3 25.4 C 6.4 km/h
799 19-07-2019 18:30:00 25.3 C 11.71 g/m*3 25.3 C 9.7 km/h
800 19-07-2019 18:35:00 25.3 C 11.71 g/m*3 25.3 C 9.7 km/h
Sensor: Nr:Datum:Temp:Abs-Feuchte:Windchill:Wind:
Aussen-T/F 801 19-07-2019 18:40:00 25.2 C 12.57 g/m*3 25.2 C 6.4 km/h
802 19-07-2019 18:45:00 25.2 C 12.11 g/m*3 25.2 C 3.2 km/h
803 19-07-2019 18:50:00 25.1 C 13.43 g/m*3 25.1 C 1.6 km/h
804 19-07-2019 18:55:00 24.9 C 11.9 g/m*3 24.9 C 4.8 km/h
805 19-07-2019 19:00:00 24.8 C 12.06 g/m*3 24.8 C 1.6 km/h
806 19-07-2019 19:05:00 24.9 C 13.51 g/m*3 24.9 C 1.6 km/h
807 19-07-2019 19:10:00 24.9 C 13.73 g/m*3 24.9 C 3.2 km/h
808 19-07-2019 19:15:00 25.1 C 12.04 g/m*3 25.1 C 6.4 km/h
809 19-07-2019 19:20:00 25.2 C 14.67 g/m*3 25.2 C 0 km/h
810 19-07-2019 19:25:00 25.1 C 13.89 g/m*3 25.1 C 1.6 km/h
811 19-07-2019 19:30:00 24.9 C 14.42 g/m*3 24.9 C 3.2 km/h
812 19-07-2019 19:35:00 24.8 C 14.34 g/m*3 24.8 C 0 km/h
813 19-07-2019 19:40:00 24.7 C 14.03 g/m*3 24.7 C 0 km/h
814 19-07-2019 19:45:00 24.5 C 13.43 g/m*3 24.5 C 1.6 km/h
815 19-07-2019 19:50:00 24.3 C 13.72 g/m*3 24.3 C 0 km/h
816 19-07-2019 19:55:00 24.2 C 14.3 g/m*3 24.2 C 0 km/h
817 19-07-2019 20:00:00 24.1 C 14 g/m*3 24.1 C 0 km/h
818 19-07-2019 20:05:00 23.9 C 13.85 g/m*3 23.9 C 0 km/h
819 19-07-2019 20:10:00 23.8 C 13.55 g/m*3 23.8 C 1.6 km/h
820 19-07-2019 20:15:00 23.7 C 13.48 g/m*3 23.7 C 6.4 km/h
821 19-07-2019 20:20:00 23.7 C 13.9 g/m*3 23.7 C 0 km/h
822 19-07-2019 20:25:00 23.5 C 13.32 g/m*3 23.5 C 1.6 km/h
823 19-07-2019 20:30:00 23.3 C 13.17 g/m*3 23.3 C 0 km/h
824 19-07-2019 20:35:00 23.1 C 13.02 g/m*3 23.1 C 0 km/h
825 19-07-2019 20:40:00 22.8 C 13 g/m*3 22.8 C 0 km/h
Sensor: Nr:Datum:Temp:Abs-Feuchte:Windchill:Wind:
Aussen-T/F 826 19-07-2019 20:45:00 22.6 C 13.26 g/m*3 22.6 C 0 km/h
827 19-07-2019 20:50:00 22.4 C 13.11 g/m*3 22.4 C 0 km/h
828 19-07-2019 20:55:00 22.2 C 13.15 g/m*3 22.2 C 0 km/h
829 19-07-2019 21:00:00 22 C 13 g/m*3 22 C 0 km/h
830 19-07-2019 21:05:00 21.8 C 13.05 g/m*3 21.8 C 0 km/h
831 19-07-2019 21:10:00 21.6 C 13.09 g/m*3 21.6 C 0 km/h
832 19-07-2019 21:15:00 21.3 C 13.05 g/m*3 21.3 C 0 km/h
833 19-07-2019 21:20:00 21.1 C 12.9 g/m*3 21.1 C 0 km/h
834 19-07-2019 21:25:00 20.9 C 13.11 g/m*3 20.9 C 0 km/h
835 19-07-2019 21:30:00 20.8 C 13.04 g/m*3 20.8 C 0 km/h
836 19-07-2019 21:35:00 20.7 C 13.14 g/m*3 20.7 C 0 km/h
837 19-07-2019 21:40:00 20.4 C 12.91 g/m*3 20.4 C 0 km/h
838 19-07-2019 21:45:00 20.3 C 13.01 g/m*3 20.3 C 0 km/h
839 19-07-2019 21:50:00 20.1 C 13.04 g/m*3 20.1 C 0 km/h
840 19-07-2019 21:55:00 19.9 C 13.06 g/m*3 19.9 C 0 km/h
841 19-07-2019 22:00:00 19.8 C 12.98 g/m*3 19.8 C 0 km/h
842 19-07-2019 22:05:00 19.6 C 13 g/m*3 19.6 C 0 km/h
843 19-07-2019 22:10:00 19.5 C 13.09 g/m*3 19.5 C 0 km/h
844 19-07-2019 22:15:00 19.3 C 12.94 g/m*3 19.3 C 0 km/h
845 19-07-2019 22:20:00 19.2 C 13.03 g/m*3 19.2 C 0 km/h
846 19-07-2019 22:25:00 19.2 C 13.03 g/m*3 19.2 C 0 km/h
847 19-07-2019 22:30:00 19.1 C 13.11 g/m*3 19.1 C 0 km/h
848 19-07-2019 22:35:00 19.1 C 13.11 g/m*3 19.1 C 0 km/h
849 19-07-2019 22:40:00 19 C 13.04 g/m*3 19 C 0 km/h
850 19-07-2019 22:45:00 18.9 C 12.96 g/m*3 18.9 C 0 km/h
Sensor: Nr:Datum:Temp:Abs-Feuchte:Windchill:Wind:
Aussen-T/F 851 19-07-2019 22:50:00 18.9 C 13.12 g/m*3 18.9 C 0 km/h
852 19-07-2019 22:55:00 18.9 C 13.12 g/m*3 18.9 C 0 km/h
853 19-07-2019 23:00:00 18.8 C 13.05 g/m*3 18.8 C 0 km/h
854 19-07-2019 23:05:00 18.8 C 13.21 g/m*3 18.8 C 0 km/h
855 19-07-2019 23:10:00 18.8 C 13.21 g/m*3 18.8 C 0 km/h
856 19-07-2019 23:15:00 18.7 C 13.13 g/m*3 18.7 C 0 km/h
857 19-07-2019 23:20:00 18.7 C 13.13 g/m*3 18.7 C 0 km/h
858 19-07-2019 23:25:00 18.6 C 13.21 g/m*3 18.6 C 0 km/h
859 19-07-2019 23:30:00 18.5 C 13.13 g/m*3 18.5 C 0 km/h
860 19-07-2019 23:35:00 18.4 C 13.05 g/m*3 18.4 C 0 km/h
861 19-07-2019 23:40:00 18.4 C 13.21 g/m*3 18.4 C 0 km/h
862 19-07-2019 23:45:00 18.3 C 13.13 g/m*3 18.3 C 0 km/h
863 19-07-2019 23:50:00 18.2 C 13.06 g/m*3 18.2 C 0 km/h
864 19-07-2019 23:55:00 18.1 C 13.13 g/m*3 18.1 C 0 km/h

Legende:
   Min
   Max


Maximal/Minimal-Werte vom 17.07.2019 - 19.07.2019

Sensor Min Max Avg
Temp
(Aussen-T/F)
10.6 °C
17-07-2019  06:10:00
27.6 °C
18-07-2019  14:20:00
18.84 °C
Abs-Feuchte
(Aussen-T/F)
9.17 g/m*3
17-07-2019  06:10:00
15.3 g/m*3
19-07-2019  12:15:00
11.98 g/m*3
Windchill
(Aussen-T/F)
10.6 C
17-07-2019  06:10:00
27.6 C
18-07-2019  14:20:00
18.82 C

Die Daten stammen von einer Davis Vantage Pro 2 Wetter-Station und werden unter Linux mit der Software wview2wettercgi und aufbereitet. Alle Angaben erfolgen ohne Gewähr für ihre Vollständigkeit oder Richtigkeit.
Kontakt: Rainer Krienke krienke@uni-koblenz.de . Meine Webseiten an der Uni Koblenz oder privat.
Version: $Revision: 0.78 $